Time;durP1;ratioP1;P1;durP2;ratioP2;P2;SDS_P1;SDS_P2;PMS_P1;PMS_P2;Temp;Humidity;BMP_temperature;BMP_pressure;BME280_temperature;BME280_humidity;BME280_pressure;Samples;Min_cycle;Max_cycle;Signal;HPM_P1;HPM_P2
2021/01/07 00:02:19;;;;;;;6.60;2.90;;;;;;;0.18;91.53;100656.97;5012989;28;20470;-66
2021/01/07 00:04:44;;;;;;;4.50;2.57;;;;;;;0.26;91.95;100659.16;5013057;28;20512;-66
2021/01/07 00:07:09;;;;;;;3.90;2.23;;;;;;;0.26;91.66;100667.03;5012746;28;20562;-66
2021/01/07 00:09:35;;;;;;;3.63;2.07;;;;;;;0.22;91.64;100657.66;5012965;28;20109;-66
2021/01/07 00:12:00;;;;;;;5.13;2.03;;;;;;;0.28;91.71;100649.38;5011524;28;20120;-66
2021/01/07 00:14:25;;;;;;;4.10;2.97;;;;;;;0.28;91.79;100648.53;5012979;28;20471;-66
2021/01/07 00:16:51;;;;;;;5.20;2.57;;;;;;;0.29;91.65;100647.59;5012477;28;20363;-66
2021/01/07 00:19:16;;;;;;;5.93;2.70;;;;;;;0.32;91.54;100637.72;5011833;28;20096;-66
2021/01/07 00:21:42;;;;;;;6.77;3.20;;;;;;;0.33;91.45;100644.69;5011830;28;20041;-66
2021/01/07 00:24:07;;;;;;;8.03;3.33;;;;;;;0.27;91.36;100639.81;5011759;28;20296;-65
2021/01/07 00:26:33;;;;;;;8.82;3.65;;;;;;;0.22;91.51;100641.06;5012272;28;20121;-66
2021/01/07 00:28:58;;;;;;;6.57;3.73;;;;;;;0.23;91.66;100643.56;5011624;28;20418;-66
2021/01/07 00:31:24;;;;;;;7.15;3.38;;;;;;;0.20;91.62;100639.34;5012428;28;20423;-65
2021/01/07 00:33:49;;;;;;;5.23;2.70;;;;;;;0.23;91.77;100637.47;5011571;28;20057;-66
2021/01/07 00:36:17;;;;;;;6.73;3.00;;;;;;;0.26;91.76;100638.13;5011236;28;20303;-66
2021/01/07 00:38:43;;;;;;;4.97;2.67;;;;;;;0.27;91.99;100638.97;5012421;28;20356;-66
2021/01/07 00:41:10;;;;;;;5.03;2.60;;;;;;;0.30;91.92;100638.75;5012430;28;20078;-65
2021/01/07 00:43:35;;;;;;;;;;;;;;;0.32;91.83;100632.47;5012704;28;20099;-66
2021/01/07 00:46:01;;;;;;;8.00;3.85;;;;;;;0.31;91.96;100636.03;5011085;28;19921;-66
2021/01/07 00:48:26;;;;;;;9.67;5.07;;;;;;;0.29;91.95;100627.44;5011094;28;20041;-66
2021/01/07 00:50:51;;;;;;;14.18;6.63;;;;;;;0.27;92.01;100629.31;5011309;28;20033;-66
2021/01/07 00:53:17;;;;;;;17.33;6.20;;;;;;;0.29;92.29;100627.44;5011212;28;20061;-66
2021/01/07 00:55:42;;;;;;;14.37;7.00;;;;;;;0.30;92.35;100629.09;5010959;28;20363;-66
2021/01/07 00:58:10;;;;;;;8.80;4.35;;;;;;;0.27;92.14;100624.06;5011055;28;20026;-66
2021/01/07 01:00:36;;;;;;;7.20;3.93;;;;;;;0.30;92.29;100618.59;5011014;28;20490;-65
2021/01/07 01:03:02;;;;;;;6.07;3.53;;;;;;;0.35;92.37;100626.16;4994694;28;20042;-65
2021/01/07 01:05:28;;;;;;;6.28;3.65;;;;;;;0.38;92.38;100626.00;5011723;28;20034;-65
2021/01/07 01:07:53;;;;;;;5.80;3.20;;;;;;;0.37;92.41;100625.13;4994490;28;20034;-65
2021/01/07 01:10:18;;;;;;;5.47;2.97;;;;;;;0.32;92.01;100627.22;5010957;28;20042;-65
2021/01/07 01:12:43;;;;;;;6.57;3.70;;;;;;;0.22;92.32;100625.31;5011965;28;20037;-65
2021/01/07 01:15:11;;;;;;;5.47;3.00;;;;;;;0.25;92.25;100625.09;5010714;28;20099;-65
2021/01/07 01:17:38;;;;;;;4.47;2.70;;;;;;;0.28;92.53;100625.75;5011573;28;20042;-64
2021/01/07 01:20:12;;;;;;;8.15;3.28;;;;;;;0.28;92.22;100627.50;5010832;28;20037;-64
2021/01/07 01:22:38;;;;;;;6.32;2.90;;;;;;;0.28;92.09;100625.75;5009957;28;20646;-66
2021/01/07 01:25:08;;;;;;;;;;;;;;;0.30;92.21;100621.22;5011235;28;20037;-67
2021/01/07 01:27:35;;;;;;;5.45;2.97;;;;;;;0.34;92.34;100627.13;5010434;28;19920;-65
2021/01/07 01:30:00;;;;;;;5.90;3.30;;;;;;;0.27;92.34;100624.06;5010440;28;20099;-65
2021/01/07 01:32:26;;;;;;;6.32;3.38;;;;;;;0.32;92.12;100621.97;5011563;28;20042;-65
2021/01/07 01:34:52;;;;;;;7.30;4.30;;;;;;;0.30;92.28;100621.22;5010543;28;20087;-65
2021/01/07 01:37:18;;;;;;;6.97;3.60;;;;;;;0.31;92.21;100620.28;5010410;28;20511;-65
2021/01/07 01:39:43;;;;;;;7.90;4.40;;;;;;;0.33;92.45;100617.56;5011468;28;20055;-65
2021/01/07 01:42:09;;;;;;;8.77;4.57;;;;;;;0.33;92.36;100623.66;5011476;28;20131;-65
2021/01/07 01:44:34;;;;;;;6.38;3.25;;;;;;;0.36;92.39;100620.81;5011359;28;20057;-65
2021/01/07 01:47:00;;;;;;;11.90;4.97;;;;;;;0.30;92.34;100613.34;5010392;28;20037;-65
2021/01/07 01:49:25;;;;;;;7.67;3.97;;;;;;;0.33;92.17;100617.56;5011437;28;20042;-64
2021/01/07 01:51:50;;;;;;;6.57;3.83;;;;;;;0.36;92.35;100607.69;5011540;28;20038;-65
2021/01/07 01:54:16;;;;;;;6.47;3.72;;;;;;;0.39;92.50;100618.00;5010563;28;20038;-64
2021/01/07 01:56:46;;;;;;;9.43;4.50;;;;;;;0.44;92.40;100612.44;5011020;28;20053;-65
2021/01/07 01:59:12;;;;;;;7.30;4.30;;;;;;;0.46;92.44;100622.84;5010300;28;20088;-64
2021/01/07 02:01:37;;;;;;;8.15;4.75;;;;;;;0.44;92.45;100614.22;5010308;28;20030;-64
2021/01/07 02:04:03;;;;;;;9.37;4.17;;;;;;;0.45;92.44;100610.69;5011337;28;20403;-65
2021/01/07 02:06:30;;;;;;;7.63;4.40;;;;;;;0.49;92.16;100612.13;5009948;28;20384;-64
2021/01/07 02:08:56;;;;;;;6.13;3.63;;;;;;;0.48;92.29;100615.72;5011243;28;20042;-64
2021/01/07 02:11:22;;;;;;;6.93;4.10;;;;;;;0.44;92.17;100614.22;5011177;28;20084;-65
2021/01/07 02:13:48;;;;;;;7.60;4.30;;;;;;;0.51;92.17;100610.25;5011135;28;20050;-65
2021/01/07 02:16:21;;;;;;;;;;;;;;;0.49;92.30;100617.38;5010420;28;20072;-65
2021/01/07 02:18:46;;;;;;;7.10;3.58;;;;;;;0.47;92.07;100606.13;5011181;28;19917;-65
2021/01/07 02:21:11;;;;;;;6.72;3.47;;;;;;;0.45;92.14;100606.25;5010269;28;20037;-65
2021/01/07 02:23:51;;;;;;;6.90;3.60;;;;;;;0.41;92.21;100600.34;5011211;28;20057;-65
2021/01/07 02:26:18;;;;;;;5.57;2.75;;;;;;;0.44;92.26;100599.31;5009743;28;20057;-65
2021/01/07 02:28:43;;;;;;;6.10;3.47;;;;;;;0.46;92.12;100600.06;5010088;28;20447;-65
2021/01/07 02:31:09;;;;;;;5.50;3.00;;;;;;;0.49;92.17;100596.38;5011080;28;20045;-65
2021/01/07 02:33:34;;;;;;;6.77;3.60;;;;;;;0.46;92.02;100594.78;5011711;28;20117;-65
2021/01/07 02:35:59;;;;;;;8.47;4.57;;;;;;;0.46;92.18;100593.97;5014497;28;20042;-64
2021/01/07 02:38:25;;;;;;;7.10;2.73;;;;;;;0.49;92.22;100596.38;5013691;28;20034;-65
2021/01/07 02:40:50;;;;;;;4.93;2.57;;;;;;;0.44;92.10;100596.69;5014468;28;20037;-64
2021/01/07 02:43:16;;;;;;;7.13;3.88;;;;;;;0.40;91.99;100595.22;5014530;28;20280;-65
2021/01/07 02:45:41;;;;;;;6.50;3.47;;;;;;;0.30;92.12;100587.06;5013396;28;20527;-64
2021/01/07 02:48:06;;;;;;;5.77;3.17;;;;;;;0.39;92.23;100593.53;5014410;28;20503;-65
2021/01/07 02:50:32;;;;;;;4.88;2.80;;;;;;;0.38;92.14;100592.69;5014492;28;20049;-65
2021/01/07 02:52:57;;;;;;;6.90;4.03;;;;;;;0.42;92.30;100590.69;5014498;28;20124;-65
2021/01/07 02:55:22;;;;;;;5.93;3.50;;;;;;;0.36;92.20;100591.94;5014246;28;20125;-65
2021/01/07 02:57:48;;;;;;;6.23;3.40;;;;;;;0.40;92.09;100587.34;5013049;28;20034;-65
2021/01/07 03:00:14;;;;;;;5.03;3.23;;;;;;;0.49;92.15;100592.00;5014489;28;20375;-65
2021/01/07 03:02:39;;;;;;;5.30;3.15;;;;;;;0.41;92.10;100589.00;4997001;28;20372;-65
2021/01/07 03:05:05;;;;;;;9.30;3.60;;;;;;;0.43;92.07;100587.13;4996879;28;20038;-65
2021/01/07 03:07:30;;;;;;;7.60;3.85;;;;;;;0.43;92.07;100588.91;5013799;28;20080;-65
2021/01/07 03:09:55;;;;;;;6.50;3.60;;;;;;;0.47;92.04;100578.09;5013029;28;20096;-65
2021/01/07 03:12:21;;;;;;;6.17;3.37;;;;;;;0.40;92.12;100582.94;5013930;28;20041;-65
2021/01/07 03:14:46;;;;;;;7.33;3.83;;;;;;;0.43;92.02;100587.13;5014106;28;20069;-65
2021/01/07 03:17:12;;;;;;;8.82;3.88;;;;;;;0.40;92.04;100582.94;5013750;28;20045;-65
2021/01/07 03:19:38;;;;;;;7.22;3.33;;;;;;;0.42;92.12;100580.19;4996605;28;20026;-65
2021/01/07 03:22:04;;;;;;;8.60;3.63;;;;;;;0.41;92.34;100584.59;5013001;28;20037;-65
2021/01/07 03:24:30;;;;;;;5.05;3.20;;;;;;;0.39;92.11;100580.38;5013747;28;20052;-65
2021/01/07 03:26:55;;;;;;;6.80;3.92;;;;;;;0.40;92.24;100575.03;5012615;28;20037;-65
2021/01/07 03:29:21;;;;;;;6.33;3.43;;;;;;;0.38;92.10;100573.47;5013718;28;20034;-65
2021/01/07 03:31:46;;;;;;;6.65;3.63;;;;;;;0.41;92.08;100574.09;5013704;28;20033;-65
2021/01/07 03:34:12;;;;;;;5.60;3.23;;;;;;;0.45;92.21;100573.91;5013673;28;20129;-65
2021/01/07 03:36:37;;;;;;;6.40;3.23;;;;;;;0.47;92.17;100574.63;5012429;28;20439;-65
2021/01/07 03:39:03;;;;;;;6.33;3.87;;;;;;;0.45;92.13;100581.78;5012474;28;20121;-65
2021/01/07 03:41:28;;;;;;;7.80;3.90;;;;;;;0.44;92.15;100572.19;5012553;28;20448;-65
2021/01/07 03:43:53;;;;;;;5.07;3.10;;;;;;;0.43;92.21;100573.16;4996102;28;20061;-65
2021/01/07 03:46:19;;;;;;;7.37;4.13;;;;;;;0.44;92.19;100566.94;5011335;28;20742;-65
2021/01/07 03:48:44;;;;;;;7.67;3.93;;;;;;;0.52;92.26;100578.66;5013175;28;20038;-65
2021/01/07 03:51:09;;;;;;;7.13;4.27;;;;;;;0.49;92.21;100575.34;5012543;28;20108;-65
2021/01/07 03:53:35;;;;;;;7.43;4.10;;;;;;;0.55;91.95;100569.72;4995928;28;20033;-65
2021/01/07 03:56:00;;;;;;;6.73;3.63;;;;;;;0.53;92.02;100571.59;5013149;28;20038;-65
2021/01/07 03:58:25;;;;;;;6.90;4.03;;;;;;;0.51;92.27;100573.47;5012236;28;20087;-65
2021/01/07 04:00:51;;;;;;;6.20;3.73;;;;;;;0.51;92.40;100563.81;5013162;28;20045;-65
2021/01/07 04:03:16;;;;;;;7.67;3.93;;;;;;;0.49;92.29;100567.47;5013203;28;20057;-65
2021/01/07 04:05:41;;;;;;;5.97;3.60;;;;;;;0.50;92.34;100570.00;5012667;28;20026;-64
2021/01/07 04:08:07;;;;;;;7.00;3.83;;;;;;;0.53;92.07;100568.97;5012819;28;20099;-65
2021/01/07 04:10:32;;;;;;;8.80;4.77;;;;;;;0.55;92.22;100561.84;5012912;28;20359;-64
2021/01/07 04:12:57;;;;;;;7.43;4.00;;;;;;;0.56;92.47;100558.25;5012932;28;20037;-65
2021/01/07 04:15:22;;;;;;;6.43;3.70;;;;;;;0.57;92.34;100557.31;5012747;28;20373;-64
2021/01/07 04:17:48;;;;;;;7.03;3.30;;;;;;;0.55;92.05;100562.66;5011718;28;20514;-65
2021/01/07 04:20:13;;;;;;;6.67;3.67;;;;;;;0.51;92.24;100555.94;5011683;28;20033;-65
2021/01/07 04:22:40;;;;;;;7.53;4.40;;;;;;;0.54;92.27;100560.13;5012725;28;20103;-65
2021/01/07 04:25:06;;;;;;;6.85;4.30;;;;;;;0.53;92.45;100563.72;5012661;28;20117;-65
2021/01/07 04:27:32;;;;;;;7.53;4.20;;;;;;;0.63;92.32;100562.13;5011500;28;20038;-65
2021/01/07 04:29:57;;;;;;;10.17;4.47;;;;;;;0.66;92.45;100553.25;5012508;28;20045;-65
2021/01/07 04:32:22;;;;;;;7.53;4.33;;;;;;;0.66;92.18;100550.63;5011743;28;20061;-65
2021/01/07 04:34:47;;;;;;;7.20;3.70;;;;;;;0.68;92.59;100559.22;4995309;28;20034;-65
2021/01/07 04:37:13;;;;;;;5.90;3.50;;;;;;;0.65;92.17;100562.06;5011196;28;20383;-73
2021/01/07 04:39:38;;;;;;;7.17;4.00;;;;;;;0.59;92.15;100553.63;5012510;28;20491;-73
2021/01/07 04:42:04;;;;;;;6.67;3.40;;;;;;;0.61;92.29;100553.56;5011322;28;20033;-73
2021/01/07 04:44:30;;;;;;;9.90;4.70;;;;;;;0.61;92.46;100562.25;5012443;28;20460;-73
2021/01/07 04:46:58;;;;;;;5.15;3.15;;;;;;;0.60;92.33;100557.09;5012038;28;20048;-74
2021/01/07 04:49:23;;;;;;;6.28;3.53;;;;;;;0.63;92.35;100554.25;5011249;28;20517;-73
2021/01/07 04:51:49;;;;;;;6.27;3.37;;;;;;;0.62;92.37;100549.97;5012167;28;20029;-74
2021/01/07 04:54:14;;;;;;;4.88;2.80;;;;;;;0.61;92.31;100549.13;5011370;28;20061;-73
2021/01/07 04:56:40;;;;;;;5.20;3.33;;;;;;;0.60;92.47;100555.31;5010791;28;20053;-73
2021/01/07 04:59:05;;;;;;;4.72;3.17;;;;;;;0.62;92.40;100555.22;5011262;28;20038;-73
2021/01/07 05:01:31;;;;;;;3.23;1.90;;;;;;;0.66;92.60;100554.06;5012194;28;20046;-73
2021/01/07 05:03:56;;;;;;;5.22;2.63;;;;;;;0.68;92.26;100549.56;5011123;28;20052;-73
2021/01/07 05:06:25;;;;;;;5.83;2.80;;;;;;;0.68;92.22;100551.31;5010726;28;20403;-73
2021/01/07 05:09:01;;;;;;;4.63;2.70;;;;;;;0.63;92.42;100554.25;5011884;28;20033;-73
2021/01/07 05:11:28;;;;;;;6.43;2.58;;;;;;;0.65;92.14;100548.91;5012304;28;20069;-73
2021/01/07 05:13:57;;;;;;;4.18;2.28;;;;;;;0.65;92.19;100548.91;5011900;28;20037;-73
2021/01/07 05:16:22;;;;;;;4.68;2.13;;;;;;;0.63;92.22;100556.88;5010655;28;20034;-73
2021/01/07 05:18:48;;;;;;;3.67;2.37;;;;;;;0.66;92.30;100554.06;5010961;28;20502;-73
2021/01/07 05:21:13;;;;;;;3.57;2.33;;;;;;;0.68;92.21;100560.06;5011719;28;20364;-73
2021/01/07 05:23:38;;;;;;;3.85;2.22;;;;;;;0.66;92.12;100551.44;5011795;28;20096;-73
2021/01/07 05:26:04;;;;;;;4.53;2.07;;;;;;;0.65;92.20;100555.00;5011639;28;20458;-73
2021/01/07 05:28:29;;;;;;;4.00;2.30;;;;;;;0.63;92.17;100552.50;5010621;28;20440;-73
2021/01/07 05:30:59;;;;;;;3.23;2.00;;;;;;;0.65;92.10;100557.63;5011850;28;20030;-74
2021/01/07 05:33:26;;;;;;;5.72;3.17;;;;;;;0.62;91.95;100557.84;5010664;28;20125;-73
2021/01/07 05:35:52;;;;;;;4.07;2.45;;;;;;;0.54;92.00;100549.63;5010256;28;20045;-73
2021/01/07 05:38:17;;;;;;;5.43;2.90;;;;;;;0.67;92.21;100547.84;5010676;28;20582;-73
2021/01/07 05:40:43;;;;;;;6.03;2.67;;;;;;;0.72;91.70;100551.00;5010633;28;20038;-73
2021/01/07 05:43:11;;;;;;;6.40;3.20;;;;;;;0.65;91.84;100554.16;5011600;28;20092;-73
2021/01/07 05:45:39;;;;;;;4.47;2.60;;;;;;;0.60;91.71;100557.94;5010561;28;20080;-73
2021/01/07 05:48:05;;;;;;;4.75;2.63;;;;;;;0.55;91.78;100559.19;5010328;28;20407;-73
2021/01/07 05:50:41;;;;;;;6.97;3.55;;;;;;;0.54;91.83;100554.88;5011361;28;20068;-73
2021/01/07 05:53:06;;;;;;;7.93;3.00;;;;;;;0.51;91.82;100557.72;5010448;28;20379;-73
2021/01/07 05:55:32;;;;;;;7.53;3.58;;;;;;;0.60;92.03;100557.09;5011248;28;20046;-73
2021/01/07 05:58:00;;;;;;;5.18;3.00;;;;;;;0.55;92.10;100559.19;5011197;28;20337;-73
2021/01/07 06:00:30;;;;;;;11.10;4.05;;;;;;;0.53;91.97;100564.53;5010562;28;20049;-73
2021/01/07 06:02:57;;;;;;;5.13;3.60;;;;;;;0.55;92.09;100551.31;5011319;28;20084;-73
2021/01/07 06:05:23;;;;;;;6.82;3.45;;;;;;;0.55;92.04;100556.56;5011206;28;20034;-73
2021/01/07 06:07:50;;;;;;;7.28;3.63;;;;;;;0.60;92.11;100560.56;5011176;28;20466;-73
2021/01/07 06:10:16;;;;;;;5.95;3.17;;;;;;;0.58;92.16;100551.94;5014658;28;20042;-73
2021/01/07 06:12:41;;;;;;;5.93;3.65;;;;;;;0.61;92.22;100557.00;5015335;28;20080;-73
2021/01/07 06:15:13;;;;;;;6.35;3.58;;;;;;;0.62;92.32;100556.06;5015063;28;20095;-73
2021/01/07 06:17:39;;;;;;;7.05;3.55;;;;;;;0.57;92.28;100554.69;5014914;28;20038;-73
2021/01/07 06:20:11;;;;;;;7.03;3.85;;;;;;;0.61;92.32;100553.56;5014963;28;20045;-73
2021/01/07 06:22:39;;;;;;;7.10;3.63;;;;;;;0.65;92.15;100556.78;5014726;28;20134;-73
2021/01/07 06:25:10;;;;;;;7.13;3.55;;;;;;;0.59;92.12;100560.69;5014820;28;20077;-65
2021/01/07 06:27:37;;;;;;;6.22;3.85;;;;;;;0.56;92.45;100556.47;5013716;28;20034;-65
2021/01/07 06:30:02;;;;;;;6.85;4.25;;;;;;;0.58;92.41;100554.56;5014582;28;20057;-65
2021/01/07 06:32:29;;;;;;;6.33;4.30;;;;;;;0.61;92.43;100553.56;5013984;28;20561;-65
2021/01/07 06:34:56;;;;;;;6.82;3.40;;;;;;;0.64;92.31;100558.59;4997435;28;20038;-65
2021/01/07 06:37:30;;;;;;;7.38;4.10;;;;;;;0.67;92.18;100542.59;5013480;28;20045;-65
2021/01/07 06:39:57;;;;;;;8.10;4.18;;;;;;;0.62;92.22;100545.53;5014495;28;20444;-66
2021/01/07 06:42:23;;;;;;;7.57;3.67;;;;;;;0.62;92.45;100552.59;5014542;28;20033;-65
2021/01/07 06:44:51;;;;;;;8.48;3.72;;;;;;;0.59;92.29;100556.28;5013538;28;20029;-65
2021/01/07 06:47:18;;;;;;;7.53;3.45;;;;;;;0.60;92.47;100554.47;5013348;28;20046;-65
2021/01/07 06:49:44;;;;;;;6.22;3.22;;;;;;;0.62;92.44;100549.97;5014282;28;20502;-65
2021/01/07 06:52:10;;;;;;;6.25;3.60;;;;;;;0.56;92.27;100556.47;5013939;28;20076;-65
2021/01/07 06:54:36;;;;;;;6.97;3.75;;;;;;;0.59;92.40;100556.28;5014181;28;20097;-65
2021/01/07 06:57:03;;;;;;;7.10;4.07;;;;;;;0.63;92.36;100565.63;5013546;28;20029;-65
2021/01/07 06:59:29;;;;;;;6.00;3.20;;;;;;;0.60;92.54;100557.09;5013119;28;20038;-65
2021/01/07 07:01:56;;;;;;;5.45;2.78;;;;;;;0.62;92.38;100560.47;5013401;28;20113;-65
2021/01/07 07:04:27;;;;;;;5.55;3.63;;;;;;;0.58;92.36;100554.56;5014149;28;20374;-66
2021/01/07 07:07:00;;;;;;;6.07;3.15;;;;;;;0.60;92.50;100557.94;5013837;28;20100;-65
2021/01/07 07:09:26;;;;;;;4.50;2.72;;;;;;;0.62;92.47;100570.97;5013045;28;20324;-65
2021/01/07 07:11:55;;;;;;;6.05;3.05;;;;;;;0.61;92.43;100564.88;5014127;28;20337;-65
2021/01/07 07:14:23;;;;;;;5.75;2.95;;;;;;;0.52;92.39;100565.50;5013057;28;20038;-65
2021/01/07 07:16:50;;;;;;;4.35;3.08;;;;;;;0.63;92.64;100576.16;5013716;28;20030;-65
2021/01/07 07:19:26;;;;;;;4.53;2.60;;;;;;;0.62;92.49;100576.22;5012999;28;20459;-65
2021/01/07 07:22:01;;;;;;;5.32;2.67;;;;;;;0.59;92.58;100576.44;5012771;28;20041;-65
2021/01/07 07:24:39;;;;;;;5.72;2.70;;;;;;;0.65;92.72;100578.66;5013822;28;20041;-65
2021/01/07 07:27:09;;;;;;;4.95;2.65;;;;;;;0.66;92.55;100582.97;5012419;28;20444;-65
2021/01/07 07:29:37;;;;;;;4.63;2.33;;;;;;;0.64;92.55;100579.59;5013661;28;20065;-65
2021/01/07 07:32:24;;;;;;;5.28;2.53;;;;;;;0.63;92.50;100578.78;5012737;28;20033;-65
2021/01/07 07:34:50;;;;;;;4.50;2.92;;;;;;;0.69;92.40;100582.75;5012794;28;20034;-66
2021/01/07 07:37:26;;;;;;;4.78;2.58;;;;;;;0.79;92.05;100581.19;5012206;28;20026;-65
2021/01/07 07:40:03;;;;;;;5.65;2.75;;;;;;;0.70;92.07;100584.44;5012552;28;20064;-65
2021/01/07 07:42:29;;;;;;;4.07;2.72;;;;;;;0.69;91.90;100592.44;5013087;28;20034;-66
2021/01/07 07:44:56;;;;;;;6.15;2.90;;;;;;;0.74;92.13;100587.72;4995916;28;20046;-65
2021/01/07 07:47:22;;;;;;;6.22;2.90;;;;;;;0.74;92.12;100593.81;5012092;28;20033;-66
2021/01/07 07:49:54;;;;;;;;;;;;;;;0.78;92.27;100595.28;5013694;28;20040;-65
2021/01/07 07:52:21;;;;;;;5.47;3.42;;;;;;;0.74;91.93;100593.81;5012203;28;20305;-65
2021/01/07 07:54:56;;;;;;;;;;;;;;;0.79;92.21;100599.59;5011510;28;20132;-65
2021/01/07 07:57:22;;;;;;;6.60;3.20;;;;;;;0.76;92.28;100602.44;5011067;28;19917;-65
2021/01/07 07:59:47;;;;;;;4.50;2.90;;;;;;;0.72;91.93;100606.19;5010345;28;20037;-65
2021/01/07 08:02:15;;;;;;;5.67;2.63;;;;;;;0.71;92.21;100594.00;4994344;28;20411;-65
2021/01/07 08:04:43;;;;;;;5.22;2.97;;;;;;;0.69;92.03;100600.31;4994061;28;20218;-65
2021/01/07 08:07:09;;;;;;;5.00;2.85;;;;;;;0.71;92.00;100604.53;5010983;28;20033;-65
2021/01/07 08:09:34;;;;;;;5.03;2.88;;;;;;;0.71;92.09;100606.31;5010525;28;20125;-65
2021/01/07 08:12:00;;;;;;;5.17;3.20;;;;;;;0.75;92.20;100613.91;5011942;28;20221;-66
2021/01/07 08:14:28;;;;;;;10.02;4.20;;;;;;;0.90;92.34;100603.28;5012913;28;20128;-66
2021/01/07 08:16:55;;;;;;;5.15;2.90;;;;;;;1.15;92.49;100607.72;5011467;28;20045;-66
2021/01/07 08:19:33;;;;;;;5.82;2.50;;;;;;;1.07;92.19;100608.22;5011433;28;20038;-66
2021/01/07 08:21:59;;;;;;;5.47;3.08;;;;;;;0.90;92.05;100616.44;5011762;28;20041;-65
2021/01/07 08:24:25;;;;;;;;;;;;;;;0.91;91.94;100615.47;5011846;28;20044;-65
2021/01/07 08:27:04;;;;;;;6.20;2.92;;;;;;;0.87;91.68;100619.25;5012287;28;19917;-65
2021/01/07 08:29:34;;;;;;;3.80;2.30;;;;;;;0.85;91.84;100619.38;5012492;28;20623;-65
2021/01/07 08:32:01;;;;;;;3.72;2.45;;;;;;;0.89;92.01;100615.59;5009430;28;20042;-65
2021/01/07 08:34:29;;;;;;;5.32;3.05;;;;;;;0.87;91.68;100621.88;5009578;28;20048;-65
2021/01/07 08:36:54;;;;;;;6.32;3.20;;;;;;;0.89;91.97;100620.00;5009801;28;20040;-65
2021/01/07 08:39:19;;;;;;;8.67;3.13;;;;;;;0.88;91.69;100618.31;5009783;28;20034;-65
2021/01/07 08:41:45;;;;;;;4.57;2.67;;;;;;;0.92;91.78;100614.56;5010554;28;20048;-65
2021/01/07 08:44:11;;;;;;;6.50;3.40;;;;;;;0.96;91.75;100608.13;5010126;28;20038;-65
2021/01/07 08:46:45;;;;;;;5.22;2.55;;;;;;;1.01;91.80;100616.56;5011326;28;20121;-65
2021/01/07 08:49:16;;;;;;;5.55;3.00;;;;;;;0.96;91.73;100614.25;4994523;28;20048;-65
2021/01/07 08:51:46;;;;;;;6.20;3.28;;;;;;;1.04;91.79;100613.72;5011218;28;20045;-66
2021/01/07 08:54:14;;;;;;;4.43;2.63;;;;;;;0.99;91.52;100610.56;5011092;28;20041;-65
2021/01/07 08:56:41;;;;;;;5.70;3.42;;;;;;;1.01;91.57;100604.25;5010190;28;20100;-66
2021/01/07 08:59:19;;;;;;;4.88;2.65;;;;;;;1.06;91.68;100611.81;4994686;28;20041;-65
2021/01/07 09:01:56;;;;;;;5.75;3.38;;;;;;;0.89;91.45;100615.59;5011936;28;20038;-65
2021/01/07 09:04:22;;;;;;;5.32;3.30;;;;;;;0.96;91.96;100608.97;5011739;28;20085;-66
2021/01/07 09:07:07;;;;;;;5.72;3.45;;;;;;;1.09;91.76;100605.50;5011624;28;20069;-65
2021/01/07 09:09:46;;;;;;;5.45;3.25;;;;;;;1.19;91.74;100612.66;5011820;28;20091;-64
2021/01/07 09:12:18;;;;;;;6.75;2.67;;;;;;;1.22;91.67;100603.72;5011436;28;20046;-64
2021/01/07 09:14:57;;;;;;;7.03;3.35;;;;;;;1.24;91.50;100610.56;5011948;28;20056;-65
2021/01/07 09:17:25;;;;;;;7.50;3.10;;;;;;;1.29;91.54;100610.25;5010211;28;20037;-65
2021/01/07 09:19:51;;;;;;;5.57;3.42;;;;;;;1.27;91.38;100615.59;5010801;28;20036;-65
2021/01/07 09:22:23;;;;;;;4.50;2.88;;;;;;;1.22;91.25;100612.47;5011484;28;20030;-65
2021/01/07 09:24:49;;;;;;;5.97;3.20;;;;;;;1.24;91.21;100613.19;5011653;28;20371;-65
2021/01/07 09:27:17;;;;;;;4.95;3.25;;;;;;;1.27;91.45;100610.34;5011060;28;20030;-65
2021/01/07 09:29:43;;;;;;;5.85;3.60;;;;;;;1.34;91.40;100612.56;5010591;28;20062;-66
2021/01/07 09:32:10;;;;;;;5.38;3.08;;;;;;;1.39;91.48;100620.97;5009815;28;20084;-65
2021/01/07 09:34:36;;;;;;;3.90;2.42;;;;;;;1.38;91.42;100614.00;5010701;28;20108;-65
2021/01/07 09:37:03;;;;;;;8.00;3.35;;;;;;;1.34;91.20;100609.94;5009315;28;20376;-65
2021/01/07 09:39:29;;;;;;;5.65;2.85;;;;;;;1.35;91.08;100612.44;5009470;28;20044;-65
2021/01/07 09:41:54;;;;;;;5.63;3.67;;;;;;;1.37;91.23;100604.44;5009601;28;20128;-65
2021/01/07 09:44:19;;;;;;;4.73;3.10;;;;;;;1.44;91.31;100613.59;5009635;28;20133;-65
2021/01/07 09:46:44;;;;;;;5.77;3.10;;;;;;;1.47;91.40;100616.00;5010447;28;20033;-65
2021/01/07 09:49:10;;;;;;;3.67;2.40;;;;;;;1.59;91.38;100615.16;5010352;28;20052;-66
2021/01/07 09:51:35;;;;;;;6.37;3.20;;;;;;;1.63;91.09;100611.34;5010774;28;20062;-66
2021/01/07 09:54:00;;;;;;;4.93;3.40;;;;;;;1.61;90.95;100607.97;5009564;28;20100;-65
2021/01/07 09:56:26;;;;;;;4.43;2.87;;;;;;;1.64;90.98;100605.16;4992987;28;20037;-66
2021/01/07 09:58:51;;;;;;;5.40;3.30;;;;;;;1.68;91.02;100609.22;5009659;28;20092;-65
2021/01/07 10:01:18;;;;;;;4.40;2.50;;;;;;;1.75;91.01;100614.06;5009811;28;20095;-65
2021/01/07 10:03:43;;;;;;;5.53;3.58;;;;;;;1.69;90.75;100605.66;5007877;28;20034;-65
2021/01/07 10:06:08;;;;;;;3.57;2.33;;;;;;;1.83;90.92;100612.56;5010086;28;20049;-65
2021/01/07 10:08:34;;;;;;;8.00;3.53;;;;;;;1.87;90.79;100607.91;5008885;28;20045;-73
2021/01/07 10:11:00;;;;;;;4.97;3.07;;;;;;;1.88;90.61;100604.34;5008943;28;20038;-73
2021/01/07 10:13:25;;;;;;;5.97;3.25;;;;;;;1.92;90.55;100605.81;5009345;28;20103;-73
2021/01/07 10:15:51;;;;;;;5.70;3.40;;;;;;;1.94;90.67;100603.88;5009528;28;20038;-73
2021/01/07 10:18:16;;;;;;;5.30;3.30;;;;;;;2.02;90.57;100606.00;5009486;28;20026;-73
2021/01/07 10:20:41;;;;;;;8.00;4.23;;;;;;;2.01;90.29;100605.13;5008370;28;20080;-73
2021/01/07 10:23:08;;;;;;;6.80;3.03;;;;;;;1.97;90.12;100603.69;4991580;28;20046;-73
2021/01/07 10:25:34;;;;;;;3.90;2.80;;;;;;;2.01;90.18;100599.84;5008376;28;20042;-73
2021/01/07 10:28:00;;;;;;;6.28;3.67;;;;;;;2.09;90.23;100601.97;5008804;28;20034;-73
2021/01/07 10:30:25;;;;;;;7.47;4.00;;;;;;;2.08;90.25;100605.53;5009524;28;20049;-73
2021/01/07 10:32:53;;;;;;;6.22;3.97;;;;;;;1.98;90.09;100597.47;5009386;28;20042;-73
2021/01/07 10:35:21;;;;;;;5.40;3.08;;;;;;;2.02;90.22;100604.19;5009289;28;20030;-73
2021/01/07 10:37:58;;;;;;;3.45;2.60;;;;;;;1.99;90.22;100601.78;5009191;28;20034;-73
2021/01/07 10:40:26;;;;;;;7.68;3.63;;;;;;;2.02;90.34;100606.00;5009616;28;20068;-73
2021/01/07 10:42:51;;;;;;;5.65;3.13;;;;;;;1.92;90.18;100605.81;5010098;28;20042;-73
2021/01/07 10:45:17;;;;;;;7.50;4.23;;;;;;;1.94;90.29;100603.06;5010823;28;20048;-73
2021/01/07 10:47:45;;;;;;;6.43;4.22;;;;;;;2.01;90.49;100602.50;5010615;28;20049;-74
2021/01/07 10:50:12;;;;;;;6.13;3.47;;;;;;;2.10;90.69;100596.56;5009833;28;20108;-73
2021/01/07 10:53:02;;;;;;;9.32;4.18;;;;;;;2.06;90.31;100591.63;5009876;28;20127;-74
2021/01/07 10:55:30;;;;;;;4.28;2.72;;;;;;;2.11;90.19;100595.63;5012659;28;20088;-73
2021/01/07 10:58:01;;;;;;;5.82;3.30;;;;;;;2.06;89.94;100589.00;5013418;28;20038;-73
2021/01/07 11:00:29;;;;;;;3.25;2.28;;;;;;;2.16;90.23;100581.28;5014168;28;20030;-73
2021/01/07 11:03:18;;;;;;;4.20;2.67;;;;;;;2.05;89.95;100585.53;5013279;28;20106;-73
2021/01/07 11:05:46;;;;;;;4.57;2.63;;;;;;;2.06;89.70;100589.84;4996564;28;20116;-73
2021/01/07 11:08:20;;;;;;;5.07;3.67;;;;;;;2.13;89.96;100581.50;5014105;28;20099;-73
2021/01/07 11:10:51;;;;;;;4.20;3.10;;;;;;;2.04;89.95;100583.84;5013113;28;20434;-73
2021/01/07 11:13:21;;;;;;;5.32;2.78;;;;;;;2.09;89.93;100580.88;5013113;28;20105;-74
2021/01/07 11:15:52;;;;;;;5.13;2.90;;;;;;;1.99;89.64;100574.59;5013836;28;20034;-73
2021/01/07 11:18:28;;;;;;;5.70;3.08;;;;;;;2.14;89.85;100575.28;5013966;28;20038;-73
2021/01/07 11:21:03;;;;;;;4.13;2.67;;;;;;;2.03;89.34;100570.78;5013875;28;20032;-73
2021/01/07 11:23:28;;;;;;;5.70;3.40;;;;;;;1.95;89.38;100573.16;5012991;28;20038;-73
2021/01/07 11:25:54;;;;;;;4.00;2.50;;;;;;;1.87;89.76;100571.06;5012553;28;20506;-73
2021/01/07 11:28:19;;;;;;;4.45;2.75;;;;;;;1.83;89.42;100573.09;5013763;28;20033;-73
2021/01/07 11:30:46;;;;;;;3.78;2.30;;;;;;;1.89;90.12;100569.16;5013712;28;20084;-73
2021/01/07 11:33:11;;;;;;;;;;;;;;;2.00;90.41;100573.66;5014126;28;20072;-73
2021/01/07 11:35:37;;;;;;;;;;;;;;;2.05;90.25;100561.00;5013956;28;19914;-73